sensor_id;sensor_type;location;lat;lon;timestamp;temperature;humidity
83120;SHT31;73001;51.784;4.660;2024-03-02T00:00:20;9.00;78.39
83120;SHT31;73001;51.784;4.660;2024-03-02T00:02:49;8.98;78.30
83120;SHT31;73001;51.784;4.660;2024-03-02T00:05:17;8.94;78.63
83120;SHT31;73001;51.784;4.660;2024-03-02T00:07:44;8.88;78.68
83120;SHT31;73001;51.784;4.660;2024-03-02T00:10:12;8.95;78.79
83120;SHT31;73001;51.784;4.660;2024-03-02T00:12:40;8.97;78.44
83120;SHT31;73001;51.784;4.660;2024-03-02T00:15:39;8.92;78.79
83120;SHT31;73001;51.784;4.660;2024-03-02T00:18:08;8.88;79.02
83120;SHT31;73001;51.784;4.660;2024-03-02T00:20:35;8.87;79.04
83120;SHT31;73001;51.784;4.660;2024-03-02T00:23:05;8.84;78.85
83120;SHT31;73001;51.784;4.660;2024-03-02T00:25:40;8.84;79.06
83120;SHT31;73001;51.784;4.660;2024-03-02T00:28:19;8.78;79.38
83120;SHT31;73001;51.784;4.660;2024-03-02T00:30:55;8.80;79.22
83120;SHT31;73001;51.784;4.660;2024-03-02T00:33:28;8.85;79.37
83120;SHT31;73001;51.784;4.660;2024-03-02T00:35:55;8.84;79.21
83120;SHT31;73001;51.784;4.660;2024-03-02T00:38:22;8.84;78.67
83120;SHT31;73001;51.784;4.660;2024-03-02T00:40:47;8.75;79.33
83120;SHT31;73001;51.784;4.660;2024-03-02T00:46:03;8.77;79.39
83120;SHT31;73001;51.784;4.660;2024-03-02T00:48:29;8.77;79.19
83120;SHT31;73001;51.784;4.660;2024-03-02T00:50:57;8.83;79.19
83120;SHT31;73001;51.784;4.660;2024-03-02T00:53:24;8.80;78.76
83120;SHT31;73001;51.784;4.660;2024-03-02T00:55:52;8.71;79.16
83120;SHT31;73001;51.784;4.660;2024-03-02T00:58:17;8.67;79.39
83120;SHT31;73001;51.784;4.660;2024-03-02T01:00:42;8.67;79.37
83120;SHT31;73001;51.784;4.660;2024-03-02T01:03:08;8.66;79.36
83120;SHT31;73001;51.784;4.660;2024-03-02T01:05:34;8.71;79.49
83120;SHT31;73001;51.784;4.660;2024-03-02T01:08:00;8.70;79.36
83120;SHT31;73001;51.784;4.660;2024-03-02T01:10:25;8.74;79.19
83120;SHT31;73001;51.784;4.660;2024-03-02T01:12:54;8.73;79.17
83120;SHT31;73001;51.784;4.660;2024-03-02T01:15:19;8.75;78.93
83120;SHT31;73001;51.784;4.660;2024-03-02T01:17:45;8.70;79.17
83120;SHT31;73001;51.784;4.660;2024-03-02T01:20:10;8.66;79.37
83120;SHT31;73001;51.784;4.660;2024-03-02T01:22:36;8.60;79.54
83120;SHT31;73001;51.784;4.660;2024-03-02T01:25:02;8.64;79.33
83120;SHT31;73001;51.784;4.660;2024-03-02T01:27:28;8.64;79.19
83120;SHT31;73001;51.784;4.660;2024-03-02T01:29:53;8.54;79.39
83120;SHT31;73001;51.784;4.660;2024-03-02T01:32:20;8.50;79.53
83120;SHT31;73001;51.784;4.660;2024-03-02T01:34:45;8.53;78.73
83120;SHT31;73001;51.784;4.660;2024-03-02T01:37:11;8.54;78.95
83120;SHT31;73001;51.784;4.660;2024-03-02T01:39:36;8.56;78.90
83120;SHT31;73001;51.784;4.660;2024-03-02T01:42:02;8.54;79.29
83120;SHT31;73001;51.784;4.660;2024-03-02T01:44:27;8.54;78.92
83120;SHT31;73001;51.784;4.660;2024-03-02T01:46:53;8.53;79.06
83120;SHT31;73001;51.784;4.660;2024-03-02T01:49:18;8.49;79.15
83120;SHT31;73001;51.784;4.660;2024-03-02T01:51:44;8.46;79.07
83120;SHT31;73001;51.784;4.660;2024-03-02T01:54:10;8.43;79.14
83120;SHT31;73001;51.784;4.660;2024-03-02T01:56:35;8.39;78.91
83120;SHT31;73001;51.784;4.660;2024-03-02T01:59:01;8.35;79.62
83120;SHT31;73001;51.784;4.660;2024-03-02T02:01:26;8.39;79.57
83120;SHT31;73001;51.784;4.660;2024-03-02T02:03:52;8.37;79.65
83120;SHT31;73001;51.784;4.660;2024-03-02T02:06:18;8.42;79.52
83120;SHT31;73001;51.784;4.660;2024-03-02T02:08:43;8.42;78.93
83120;SHT31;73001;51.784;4.660;2024-03-02T02:11:09;8.36;79.41
83120;SHT31;73001;51.784;4.660;2024-03-02T02:13:34;8.42;79.44
83120;SHT31;73001;51.784;4.660;2024-03-02T02:16:07;8.39;79.30
83120;SHT31;73001;51.784;4.660;2024-03-02T02:18:32;8.37;79.36
83120;SHT31;73001;51.784;4.660;2024-03-02T02:20:58;8.35;79.66
83120;SHT31;73001;51.784;4.660;2024-03-02T02:23:23;8.36;79.56
83120;SHT31;73001;51.784;4.660;2024-03-02T02:25:49;8.39;79.46
83120;SHT31;73001;51.784;4.660;2024-03-02T02:28:14;8.42;79.63
83120;SHT31;73001;51.784;4.660;2024-03-02T02:30:40;8.42;79.24
83120;SHT31;73001;51.784;4.660;2024-03-02T02:33:05;8.39;79.04
83120;SHT31;73001;51.784;4.660;2024-03-02T02:35:30;8.40;78.89
83120;SHT31;73001;51.784;4.660;2024-03-02T02:37:56;8.39;79.16
83120;SHT31;73001;51.784;4.660;2024-03-02T02:40:23;8.35;79.32
83120;SHT31;73001;51.784;4.660;2024-03-02T02:42:48;8.42;79.07
83120;SHT31;73001;51.784;4.660;2024-03-02T02:45:14;8.43;79.10
83120;SHT31;73001;51.784;4.660;2024-03-02T02:47:41;8.43;78.64
83120;SHT31;73001;51.784;4.660;2024-03-02T02:50:07;8.44;78.65
83120;SHT31;73001;51.784;4.660;2024-03-02T02:52:34;8.44;78.51
83120;SHT31;73001;51.784;4.660;2024-03-02T02:55:03;8.42;78.48
83120;SHT31;73001;51.784;4.660;2024-03-02T02:57:28;8.36;78.55
83120;SHT31;73001;51.784;4.660;2024-03-02T02:59:56;8.42;78.49
83120;SHT31;73001;51.784;4.660;2024-03-02T03:02:21;8.36;78.50
83120;SHT31;73001;51.784;4.660;2024-03-02T03:04:46;8.35;78.64
83120;SHT31;73001;51.784;4.660;2024-03-02T03:07:12;8.44;78.73
83120;SHT31;73001;51.784;4.660;2024-03-02T03:09:37;8.40;78.86
83120;SHT31;73001;51.784;4.660;2024-03-02T03:12:04;8.46;78.70
83120;SHT31;73001;51.784;4.660;2024-03-02T03:14:30;8.47;78.29
83120;SHT31;73001;51.784;4.660;2024-03-02T03:16:55;8.44;78.06
83120;SHT31;73001;51.784;4.660;2024-03-02T03:19:20;8.43;78.40
83120;SHT31;73001;51.784;4.660;2024-03-02T03:21:46;8.42;77.90
83120;SHT31;73001;51.784;4.660;2024-03-02T03:24:12;8.36;78.12
83120;SHT31;73001;51.784;4.660;2024-03-02T03:26:37;8.37;78.07
83120;SHT31;73001;51.784;4.660;2024-03-02T03:29:02;8.28;78.38
83120;SHT31;73001;51.784;4.660;2024-03-02T03:31:29;8.26;77.86
83120;SHT31;73001;51.784;4.660;2024-03-02T03:33:54;8.23;78.33
83120;SHT31;73001;51.784;4.660;2024-03-02T03:36:20;8.23;78.28
83120;SHT31;73001;51.784;4.660;2024-03-02T03:38:45;8.15;78.42
83120;SHT31;73001;51.784;4.660;2024-03-02T03:41:11;8.09;78.46
83120;SHT31;73001;51.784;4.660;2024-03-02T03:43:36;8.07;77.87
83120;SHT31;73001;51.784;4.660;2024-03-02T03:46:01;8.10;78.47
83120;SHT31;73001;51.784;4.660;2024-03-02T03:48:27;8.12;78.39
83120;SHT31;73001;51.784;4.660;2024-03-02T03:50:56;8.07;78.58
83120;SHT31;73001;51.784;4.660;2024-03-02T03:53:21;8.07;78.91
83120;SHT31;73001;51.784;4.660;2024-03-02T03:55:48;8.13;78.58
83120;SHT31;73001;51.784;4.660;2024-03-02T03:58:15;8.16;78.65
83120;SHT31;73001;51.784;4.660;2024-03-02T04:00:42;8.19;78.08
83120;SHT31;73001;51.784;4.660;2024-03-02T04:03:07;8.13;78.39
83120;SHT31;73001;51.784;4.660;2024-03-02T04:05:33;8.16;78.39
83120;SHT31;73001;51.784;4.660;2024-03-02T04:07:58;8.15;78.20
83120;SHT31;73001;51.784;4.660;2024-03-02T04:10:25;8.19;78.21
83120;SHT31;73001;51.784;4.660;2024-03-02T04:12:50;8.10;78.53
83120;SHT31;73001;51.784;4.660;2024-03-02T04:15:16;8.10;78.33
83120;SHT31;73001;51.784;4.660;2024-03-02T04:17:41;8.10;78.17
83120;SHT31;73001;51.784;4.660;2024-03-02T04:20:07;8.10;77.91
83120;SHT31;73001;51.784;4.660;2024-03-02T04:22:33;8.12;78.02
83120;SHT31;73001;51.784;4.660;2024-03-02T04:25:00;8.07;77.90
83120;SHT31;73001;51.784;4.660;2024-03-02T04:27:26;8.05;78.07
83120;SHT31;73001;51.784;4.660;2024-03-02T04:29:51;8.05;78.03
83120;SHT31;73001;51.784;4.660;2024-03-02T04:32:17;8.02;77.80
83120;SHT31;73001;51.784;4.660;2024-03-02T04:34:42;7.99;77.89
83120;SHT31;73001;51.784;4.660;2024-03-02T04:37:08;7.99;77.85
83120;SHT31;73001;51.784;4.660;2024-03-02T04:39:35;7.98;78.14
83120;SHT31;73001;51.784;4.660;2024-03-02T04:42:00;8.03;77.77
83120;SHT31;73001;51.784;4.660;2024-03-02T04:44:26;8.06;77.66
83120;SHT31;73001;51.784;4.660;2024-03-02T04:46:51;8.09;77.43
83120;SHT31;73001;51.784;4.660;2024-03-02T04:49:17;8.03;77.68
83120;SHT31;73001;51.784;4.660;2024-03-02T04:51:42;8.05;77.69
83120;SHT31;73001;51.784;4.660;2024-03-02T04:54:08;8.01;77.86
83120;SHT31;73001;51.784;4.660;2024-03-02T04:56:33;8.02;77.92
83120;SHT31;73001;51.784;4.660;2024-03-02T04:59:10;8.05;77.37
83120;SHT31;73001;51.784;4.660;2024-03-02T05:01:35;7.96;77.25
83120;SHT31;73001;51.784;4.660;2024-03-02T05:04:01;7.98;77.84
83120;SHT31;73001;51.784;4.660;2024-03-02T05:06:26;7.95;77.51
83120;SHT31;73001;51.784;4.660;2024-03-02T05:08:52;7.92;77.26
83120;SHT31;73001;51.784;4.660;2024-03-02T05:11:17;7.92;77.29
83120;SHT31;73001;51.784;4.660;2024-03-02T05:14:15;7.86;77.65
83120;SHT31;73001;51.784;4.660;2024-03-02T05:16:40;7.89;77.33
83120;SHT31;73001;51.784;4.660;2024-03-02T05:19:07;7.89;77.33
83120;SHT31;73001;51.784;4.660;2024-03-02T05:21:33;7.84;77.50
83120;SHT31;73001;51.784;4.660;2024-03-02T05:23:59;7.82;77.54
83120;SHT31;73001;51.784;4.660;2024-03-02T05:26:24;7.86;77.86
83120;SHT31;73001;51.784;4.660;2024-03-02T05:28:50;7.92;77.52
83120;SHT31;73001;51.784;4.660;2024-03-02T05:31:15;7.96;77.42
83120;SHT31;73001;51.784;4.660;2024-03-02T05:33:42;7.95;77.16
83120;SHT31;73001;51.784;4.660;2024-03-02T05:36:07;7.99;77.15
83120;SHT31;73001;51.784;4.660;2024-03-02T05:38:36;8.03;77.20
83120;SHT31;73001;51.784;4.660;2024-03-02T05:41:02;8.03;77.35
83120;SHT31;73001;51.784;4.660;2024-03-02T05:43:27;8.03;77.47
83120;SHT31;73001;51.784;4.660;2024-03-02T05:45:53;8.05;77.34
83120;SHT31;73001;51.784;4.660;2024-03-02T05:48:18;8.05;76.90
83120;SHT31;73001;51.784;4.660;2024-03-02T05:50:43;8.03;77.43
83120;SHT31;73001;51.784;4.660;2024-03-02T05:53:09;7.96;77.85
83120;SHT31;73001;51.784;4.660;2024-03-02T05:55:34;8.02;77.83
83120;SHT31;73001;51.784;4.660;2024-03-02T05:58:00;8.02;77.22
83120;SHT31;73001;51.784;4.660;2024-03-02T06:00:48;8.02;77.18
83120;SHT31;73001;51.784;4.660;2024-03-02T06:03:13;7.98;77.10
83120;SHT31;73001;51.784;4.660;2024-03-02T06:05:38;7.91;77.04
83120;SHT31;73001;51.784;4.660;2024-03-02T06:08:04;7.91;77.14
83120;SHT31;73001;51.784;4.660;2024-03-02T06:10:29;7.88;77.11
83120;SHT31;73001;51.784;4.660;2024-03-02T06:12:55;7.82;77.01
83120;SHT31;73001;51.784;4.660;2024-03-02T06:15:20;7.77;77.11
83120;SHT31;73001;51.784;4.660;2024-03-02T06:17:46;7.74;77.10
83120;SHT31;73001;51.784;4.660;2024-03-02T06:20:11;7.74;76.91
83120;SHT31;73001;51.784;4.660;2024-03-02T06:22:36;7.71;77.13
83120;SHT31;73001;51.784;4.660;2024-03-02T06:25:02;7.78;76.70
83120;SHT31;73001;51.784;4.660;2024-03-02T06:27:27;7.79;76.65
83120;SHT31;73001;51.784;4.660;2024-03-02T06:29:53;7.82;76.61
83120;SHT31;73001;51.784;4.660;2024-03-02T06:32:20;7.82;76.50
83120;SHT31;73001;51.784;4.660;2024-03-02T06:34:45;7.81;76.38
83120;SHT31;73001;51.784;4.660;2024-03-02T06:37:11;7.88;76.30
83120;SHT31;73001;51.784;4.660;2024-03-02T06:39:36;7.92;75.75
83120;SHT31;73001;51.784;4.660;2024-03-02T06:42:01;7.92;75.75
83120;SHT31;73001;51.784;4.660;2024-03-02T06:44:27;7.89;75.91
83120;SHT31;73001;51.784;4.660;2024-03-02T06:46:53;7.94;75.45
83120;SHT31;73001;51.784;4.660;2024-03-02T06:49:18;7.89;75.66
83120;SHT31;73001;51.784;4.660;2024-03-02T06:51:44;7.85;76.08
83120;SHT31;73001;51.784;4.660;2024-03-02T06:54:10;7.85;75.63
83120;SHT31;73001;51.784;4.660;2024-03-02T06:56:35;7.81;75.41
83120;SHT31;73001;51.784;4.660;2024-03-02T06:59:00;7.77;75.92
83120;SHT31;73001;51.784;4.660;2024-03-02T07:01:26;7.72;75.97
83120;SHT31;73001;51.784;4.660;2024-03-02T07:03:52;7.71;76.32
83120;SHT31;73001;51.784;4.660;2024-03-02T07:06:17;7.71;76.44
83120;SHT31;73001;51.784;4.660;2024-03-02T07:08:43;7.74;76.17
83120;SHT31;73001;51.784;4.660;2024-03-02T07:11:08;7.74;76.44
83120;SHT31;73001;51.784;4.660;2024-03-02T07:13:34;7.75;75.90
83120;SHT31;73001;51.784;4.660;2024-03-02T07:16:00;7.72;76.40
83120;SHT31;73001;51.784;4.660;2024-03-02T07:18:29;7.71;76.55
83120;SHT31;73001;51.784;4.660;2024-03-02T07:20:56;7.75;76.13
83120;SHT31;73001;51.784;4.660;2024-03-02T07:23:23;7.74;76.47
83120;SHT31;73001;51.784;4.660;2024-03-02T07:25:53;7.72;76.60
83120;SHT31;73001;51.784;4.660;2024-03-02T07:28:25;7.82;76.67
83120;SHT31;73001;51.784;4.660;2024-03-02T07:31:01;7.91;76.94
83120;SHT31;73001;51.784;4.660;2024-03-02T07:33:27;7.94;76.70
83120;SHT31;73001;51.784;4.660;2024-03-02T07:35:54;7.98;76.08
83120;SHT31;73001;51.784;4.660;2024-03-02T07:38:21;7.99;76.38
83120;SHT31;73001;51.784;4.660;2024-03-02T07:40:47;8.02;76.47
83120;SHT31;73001;51.784;4.660;2024-03-02T07:43:16;8.05;76.77
83120;SHT31;73001;51.784;4.660;2024-03-02T07:45:42;8.06;76.32
83120;SHT31;73001;51.784;4.660;2024-03-02T07:48:07;8.13;76.44
83120;SHT31;73001;51.784;4.660;2024-03-02T07:50:33;8.15;76.35
83120;SHT31;73001;51.784;4.660;2024-03-02T07:53:01;8.21;75.57
83120;SHT31;73001;51.784;4.660;2024-03-02T07:55:26;8.26;75.56
83120;SHT31;73001;51.784;4.660;2024-03-02T07:57:51;8.28;75.24
83120;SHT31;73001;51.784;4.660;2024-03-02T08:00:17;8.29;75.50
83120;SHT31;73001;51.784;4.660;2024-03-02T08:02:42;8.32;75.65
83120;SHT31;73001;51.784;4.660;2024-03-02T08:05:08;8.39;74.71
83120;SHT31;73001;51.784;4.660;2024-03-02T08:07:34;8.42;75.46
83120;SHT31;73001;51.784;4.660;2024-03-02T08:10:00;8.56;74.85
83120;SHT31;73001;51.784;4.660;2024-03-02T08:12:25;8.67;74.40
83120;SHT31;73001;51.784;4.660;2024-03-02T08:14:50;8.83;73.90
83120;SHT31;73001;51.784;4.660;2024-03-02T08:17:16;9.12;73.55
83120;SHT31;73001;51.784;4.660;2024-03-02T08:19:42;9.87;70.76
83120;SHT31;73001;51.784;4.660;2024-03-02T08:22:09;10.93;67.53
83120;SHT31;73001;51.784;4.660;2024-03-02T08:24:35;11.88;65.12
83120;SHT31;73001;51.784;4.660;2024-03-02T08:27:01;13.00;61.41
83120;SHT31;73001;51.784;4.660;2024-03-02T08:29:27;14.10;58.26
83120;SHT31;73001;51.784;4.660;2024-03-02T08:31:53;14.92;56.55
83120;SHT31;73001;51.784;4.660;2024-03-02T08:34:18;15.79;53.46
83120;SHT31;73001;51.784;4.660;2024-03-02T08:36:44;16.68;51.72
83120;SHT31;73001;51.784;4.660;2024-03-02T08:39:09;17.43;50.13
83120;SHT31;73001;51.784;4.660;2024-03-02T08:41:43;18.19;48.13
83120;SHT31;73001;51.784;4.660;2024-03-02T08:44:09;18.89;45.55
83120;SHT31;73001;51.784;4.660;2024-03-02T08:46:35;19.15;44.88
83120;SHT31;73001;51.784;4.660;2024-03-02T08:49:01;19.55;45.08
83120;SHT31;73001;51.784;4.660;2024-03-02T08:51:27;19.78;43.37
83120;SHT31;73001;51.784;4.660;2024-03-02T08:53:52;19.92;43.39
83120;SHT31;73001;51.784;4.660;2024-03-02T08:56:17;20.48;41.98
83120;SHT31;73001;51.784;4.660;2024-03-02T08:58:43;20.58;42.23
83120;SHT31;73001;51.784;4.660;2024-03-02T09:01:10;20.90;41.32
83120;SHT31;73001;51.784;4.660;2024-03-02T09:03:36;21.32;41.16
83120;SHT31;73001;51.784;4.660;2024-03-02T09:06:02;21.67;39.62
83120;SHT31;73001;51.784;4.660;2024-03-02T09:08:28;21.87;40.12
83120;SHT31;73001;51.784;4.660;2024-03-02T09:10:55;22.33;40.17
83120;SHT31;73001;51.784;4.660;2024-03-02T09:13:21;22.88;38.94
83120;SHT31;73001;51.784;4.660;2024-03-02T09:15:47;22.88;37.25
83120;SHT31;73001;51.784;4.660;2024-03-02T09:18:13;22.96;38.90
83120;SHT31;73001;51.784;4.660;2024-03-02T09:20:39;23.51;36.86
83120;SHT31;73001;51.784;4.660;2024-03-02T09:23:04;23.81;37.01
83120;SHT31;73001;51.784;4.660;2024-03-02T09:25:29;23.53;36.53
83120;SHT31;73001;51.784;4.660;2024-03-02T09:27:55;23.85;36.27
83120;SHT31;73001;51.784;4.660;2024-03-02T09:30:20;23.93;36.43
83120;SHT31;73001;51.784;4.660;2024-03-02T09:32:46;24.11;36.02
83120;SHT31;73001;51.784;4.660;2024-03-02T09:35:11;23.94;36.01
83120;SHT31;73001;51.784;4.660;2024-03-02T09:37:37;23.43;37.75
83120;SHT31;73001;51.784;4.660;2024-03-02T09:40:03;23.73;36.70
83120;SHT31;73001;51.784;4.660;2024-03-02T09:42:29;23.15;36.77
83120;SHT31;73001;51.784;4.660;2024-03-02T09:44:55;23.36;37.29
83120;SHT31;73001;51.784;4.660;2024-03-02T09:47:20;23.67;36.34
83120;SHT31;73001;51.784;4.660;2024-03-02T09:49:46;24.11;36.24
83120;SHT31;73001;51.784;4.660;2024-03-02T09:52:13;24.46;35.94
83120;SHT31;73001;51.784;4.660;2024-03-02T09:54:39;24.01;35.47
83120;SHT31;73001;51.784;4.660;2024-03-02T09:57:05;23.74;36.81
83120;SHT31;73001;51.784;4.660;2024-03-02T09:59:30;23.97;35.64
83120;SHT31;73001;51.784;4.660;2024-03-02T10:02:01;24.36;35.00
83120;SHT31;73001;51.784;4.660;2024-03-02T10:04:28;23.97;34.21
83120;SHT31;73001;51.784;4.660;2024-03-02T10:09:36;24.04;35.81
83120;SHT31;73001;51.784;4.660;2024-03-02T10:12:06;24.70;35.49
83120;SHT31;73001;51.784;4.660;2024-03-02T10:14:32;24.87;35.02
83120;SHT31;73001;51.784;4.660;2024-03-02T10:17:08;24.90;35.02
83120;SHT31;73001;51.784;4.660;2024-03-02T10:19:34;24.77;35.23
83120;SHT31;73001;51.784;4.660;2024-03-02T10:22:03;24.63;34.06
83120;SHT31;73001;51.784;4.660;2024-03-02T10:24:41;24.56;35.31
83120;SHT31;73001;51.784;4.660;2024-03-02T10:27:18;25.20;34.50
83120;SHT31;73001;51.784;4.660;2024-03-02T10:29:47;25.16;33.89
83120;SHT31;73001;51.784;4.660;2024-03-02T10:32:12;25.48;34.04
83120;SHT31;73001;51.784;4.660;2024-03-02T10:34:42;25.17;34.78
83120;SHT31;73001;51.784;4.660;2024-03-02T10:37:10;25.39;34.17
83120;SHT31;73001;51.784;4.660;2024-03-02T10:39:36;25.31;33.02
83120;SHT31;73001;51.784;4.660;2024-03-02T10:42:06;24.79;33.58
83120;SHT31;73001;51.784;4.660;2024-03-02T10:44:32;24.94;33.56
83120;SHT31;73001;51.784;4.660;2024-03-02T10:47:03;24.66;33.68
83120;SHT31;73001;51.784;4.660;2024-03-02T10:49:30;24.32;33.66
83120;SHT31;73001;51.784;4.660;2024-03-02T10:51:59;24.14;34.63
83120;SHT31;73001;51.784;4.660;2024-03-02T10:54:25;24.33;33.65
83120;SHT31;73001;51.784;4.660;2024-03-02T10:56:53;24.57;34.83
83120;SHT31;73001;51.784;4.660;2024-03-02T11:01:55;25.61;33.10
83120;SHT31;73001;51.784;4.660;2024-03-02T11:04:25;25.10;33.36
83120;SHT31;73001;51.784;4.660;2024-03-02T11:06:51;24.08;34.42
83120;SHT31;73001;51.784;4.660;2024-03-02T11:09:22;23.84;35.24
83120;SHT31;73001;51.784;4.660;2024-03-02T11:12:22;23.53;35.25
83120;SHT31;73001;51.784;4.660;2024-03-02T11:14:51;22.21;36.48
83120;SHT31;73001;51.784;4.660;2024-03-02T11:17:19;22.31;36.71
83120;SHT31;73001;51.784;4.660;2024-03-02T11:19:46;22.45;37.24
83120;SHT31;73001;51.784;4.660;2024-03-02T11:22:13;22.61;35.97
83120;SHT31;73001;51.784;4.660;2024-03-02T11:24:38;22.38;37.02
83120;SHT31;73001;51.784;4.660;2024-03-02T11:27:05;22.69;36.37
83120;SHT31;73001;51.784;4.660;2024-03-02T11:32:22;21.86;36.24
83120;SHT31;73001;51.784;4.660;2024-03-02T11:34:51;21.33;38.92
83120;SHT31;73001;51.784;4.660;2024-03-02T11:37:18;22.11;37.12
83120;SHT31;73001;51.784;4.660;2024-03-02T11:39:46;22.69;36.02
83120;SHT31;73001;51.784;4.660;2024-03-02T11:42:13;22.56;36.59
83120;SHT31;73001;51.784;4.660;2024-03-02T11:44:50;22.44;37.68
83120;SHT31;73001;51.784;4.660;2024-03-02T11:47:17;22.62;35.56
83120;SHT31;73001;51.784;4.660;2024-03-02T11:49:45;22.55;35.61
83120;SHT31;73001;51.784;4.660;2024-03-02T11:52:13;22.14;36.83
83120;SHT31;73001;51.784;4.660;2024-03-02T11:54:40;21.62;38.85
83120;SHT31;73001;51.784;4.660;2024-03-02T11:57:09;20.55;38.93
83120;SHT31;73001;51.784;4.660;2024-03-02T11:59:34;19.06;41.78
83120;SHT31;73001;51.784;4.660;2024-03-02T12:02:00;18.28;45.14
83120;SHT31;73001;51.784;4.660;2024-03-02T12:04:26;17.97;44.65
83120;SHT31;73001;51.784;4.660;2024-03-02T12:07:00;17.54;44.63
83120;SHT31;73001;51.784;4.660;2024-03-02T12:09:29;17.24;46.36
83120;SHT31;73001;51.784;4.660;2024-03-02T12:12:05;16.89;44.89
83120;SHT31;73001;51.784;4.660;2024-03-02T12:14:33;16.32;47.34
83120;SHT31;73001;51.784;4.660;2024-03-02T12:16:59;16.00;48.24
83120;SHT31;73001;51.784;4.660;2024-03-02T12:19:25;15.70;49.72
83120;SHT31;73001;51.784;4.660;2024-03-02T12:21:52;15.86;50.24
83120;SHT31;73001;51.784;4.660;2024-03-02T12:24:18;16.11;49.06
83120;SHT31;73001;51.784;4.660;2024-03-02T12:26:44;16.28;49.57
83120;SHT31;73001;51.784;4.660;2024-03-02T12:29:11;16.24;47.97
83120;SHT31;73001;51.784;4.660;2024-03-02T12:31:37;15.96;49.38
83120;SHT31;73001;51.784;4.660;2024-03-02T12:34:03;15.91;49.56
83120;SHT31;73001;51.784;4.660;2024-03-02T12:36:29;15.94;49.52
83120;SHT31;73001;51.784;4.660;2024-03-02T12:38:55;15.80;49.20
83120;SHT31;73001;51.784;4.660;2024-03-02T12:41:20;15.62;49.96
83120;SHT31;73001;51.784;4.660;2024-03-02T12:43:46;15.35;51.15
83120;SHT31;73001;51.784;4.660;2024-03-02T12:46:12;15.34;51.01
83120;SHT31;73001;51.784;4.660;2024-03-02T12:48:37;15.38;50.00
83120;SHT31;73001;51.784;4.660;2024-03-02T12:51:06;15.38;51.96
83120;SHT31;73001;51.784;4.660;2024-03-02T12:53:32;15.38;51.33
83120;SHT31;73001;51.784;4.660;2024-03-02T12:55:58;15.34;50.60
83120;SHT31;73001;51.784;4.660;2024-03-02T12:58:24;15.26;49.67
83120;SHT31;73001;51.784;4.660;2024-03-02T13:00:49;15.09;51.22
83120;SHT31;73001;51.784;4.660;2024-03-02T13:03:15;15.21;50.79
83120;SHT31;73001;51.784;4.660;2024-03-02T13:05:48;15.31;50.78
83120;SHT31;73001;51.784;4.660;2024-03-02T13:08:14;15.28;50.84
83120;SHT31;73001;51.784;4.660;2024-03-02T13:10:40;15.18;51.45
83120;SHT31;73001;51.784;4.660;2024-03-02T13:13:06;15.24;51.06
83120;SHT31;73001;51.784;4.660;2024-03-02T13:15:33;15.22;50.82
83120;SHT31;73001;51.784;4.660;2024-03-02T13:17:59;15.15;51.11
83120;SHT31;73001;51.784;4.660;2024-03-02T13:20:32;15.15;52.34
83120;SHT31;73001;51.784;4.660;2024-03-02T13:22:58;15.02;51.63
83120;SHT31;73001;51.784;4.660;2024-03-02T13:25:23;14.88;52.44
83120;SHT31;73001;51.784;4.660;2024-03-02T13:27:49;14.89;53.14
83120;SHT31;73001;51.784;4.660;2024-03-02T13:30:14;14.91;52.97
83120;SHT31;73001;51.784;4.660;2024-03-02T13:32:40;14.85;52.32
83120;SHT31;73001;51.784;4.660;2024-03-02T13:35:06;14.87;53.27
83120;SHT31;73001;51.784;4.660;2024-03-02T13:37:32;14.88;53.33
83120;SHT31;73001;51.784;4.660;2024-03-02T13:39:57;14.89;52.44
83120;SHT31;73001;51.784;4.660;2024-03-02T13:42:23;14.89;53.18
83120;SHT31;73001;51.784;4.660;2024-03-02T13:44:49;14.80;52.79
83120;SHT31;73001;51.784;4.660;2024-03-02T13:47:16;14.73;54.05
83120;SHT31;73001;51.784;4.660;2024-03-02T13:49:42;14.74;53.65
83120;SHT31;73001;51.784;4.660;2024-03-02T13:52:10;14.71;52.92
83120;SHT31;73001;51.784;4.660;2024-03-02T13:54:42;14.80;53.13
83120;SHT31;73001;51.784;4.660;2024-03-02T13:57:09;14.81;53.76
83120;SHT31;73001;51.784;4.660;2024-03-02T13:59:35;14.84;53.21
83120;SHT31;73001;51.784;4.660;2024-03-02T14:02:04;14.83;51.95
83120;SHT31;73001;51.784;4.660;2024-03-02T14:04:34;14.68;52.16
83120;SHT31;73001;51.784;4.660;2024-03-02T14:07:00;14.51;53.37
83120;SHT31;73001;51.784;4.660;2024-03-02T14:09:26;14.41;52.82
83120;SHT31;73001;51.784;4.660;2024-03-02T14:11:52;14.33;53.37
83120;SHT31;73001;51.784;4.660;2024-03-02T14:14:18;14.30;54.91
83120;SHT31;73001;51.784;4.660;2024-03-02T14:16:44;14.34;54.27
83120;SHT31;73001;51.784;4.660;2024-03-02T14:19:11;14.34;53.61
83120;SHT31;73001;51.784;4.660;2024-03-02T14:21:37;14.30;54.50
83120;SHT31;73001;51.784;4.660;2024-03-02T14:24:03;14.33;55.00
83120;SHT31;73001;51.784;4.660;2024-03-02T14:26:29;14.23;53.51
83120;SHT31;73001;51.784;4.660;2024-03-02T14:28:55;14.23;54.81
83120;SHT31;73001;51.784;4.660;2024-03-02T14:31:20;14.36;54.70
83120;SHT31;73001;51.784;4.660;2024-03-02T14:33:46;14.40;54.06
83120;SHT31;73001;51.784;4.660;2024-03-02T14:36:12;14.47;54.54
83120;SHT31;73001;51.784;4.660;2024-03-02T14:38:38;14.48;55.27
83120;SHT31;73001;51.784;4.660;2024-03-02T14:41:05;14.53;53.93
83120;SHT31;73001;51.784;4.660;2024-03-02T14:43:31;14.57;54.55
83120;SHT31;73001;51.784;4.660;2024-03-02T14:45:56;14.53;52.77
83120;SHT31;73001;51.784;4.660;2024-03-02T14:48:22;14.44;53.43
83120;SHT31;73001;51.784;4.660;2024-03-02T14:50:48;14.47;53.10
83120;SHT31;73001;51.784;4.660;2024-03-02T14:53:14;14.50;53.14
83120;SHT31;73001;51.784;4.660;2024-03-02T14:55:39;14.45;53.81
83120;SHT31;73001;51.784;4.660;2024-03-02T14:58:05;14.45;52.95
83120;SHT31;73001;51.784;4.660;2024-03-02T15:00:30;14.44;53.67
83120;SHT31;73001;51.784;4.660;2024-03-02T15:02:56;14.34;53.89
83120;SHT31;73001;51.784;4.660;2024-03-02T15:05:21;14.29;53.60
83120;SHT31;73001;51.784;4.660;2024-03-02T15:07:47;14.20;54.49
83120;SHT31;73001;51.784;4.660;2024-03-02T15:10:12;14.23;54.17
83120;SHT31;73001;51.784;4.660;2024-03-02T15:12:38;14.24;53.45
83120;SHT31;73001;51.784;4.660;2024-03-02T15:15:04;14.19;53.90
83120;SHT31;73001;51.784;4.660;2024-03-02T15:17:29;14.16;54.84
83120;SHT31;73001;51.784;4.660;2024-03-02T15:19:55;14.09;55.04
83120;SHT31;73001;51.784;4.660;2024-03-02T15:22:20;14.10;54.96
83120;SHT31;73001;51.784;4.660;2024-03-02T15:24:46;14.13;54.59
83120;SHT31;73001;51.784;4.660;2024-03-02T15:27:11;14.22;55.30
83120;SHT31;73001;51.784;4.660;2024-03-02T15:29:37;14.26;55.02
83120;SHT31;73001;51.784;4.660;2024-03-02T15:32:03;14.26;55.15
83120;SHT31;73001;51.784;4.660;2024-03-02T15:34:33;14.27;55.73
83120;SHT31;73001;51.784;4.660;2024-03-02T15:36:59;14.27;56.82
83120;SHT31;73001;51.784;4.660;2024-03-02T15:39:25;14.29;56.07
83120;SHT31;73001;51.784;4.660;2024-03-02T15:41:51;14.27;56.31
83120;SHT31;73001;51.784;4.660;2024-03-02T15:44:16;14.22;56.48
83120;SHT31;73001;51.784;4.660;2024-03-02T15:46:42;14.20;56.61